Guymon, OK

3:21 AM CDT on July 13, 2014 (GMT -0500)
Liberal Municipal (KLBL) Elev 2884 ft | 37.04 °N, 100.96 °W | Change Station

Current weather conditions updated 6 minutes ago

Clear
Clear
75 °F
Feels Like 75 °F
N
18
Wind Variable Wind from North
Gusts 26 mph

Today is forecast to be Cooler than yesterday. Partly cloudy, chance of a thunderstorm.

Today
High -- | Low -- °F
--% Chance of Precip.
Yesterday
High -- | Low -- °F
Precip. -- in
6:37 AM 9:05 PM
Full, 99% visible
Pressure 30.14 in
Visibility 10.0 miles
Clouds Clear
Dew Point 63 °F
Humidity 65%
Rainfall 0.00 in
Snow Depth Not available.
UV 0 out of 12
Pollen 4.50 out of 12
Air Quality Not available.
Flu Activity Local Activity
METAR KLBL 130815Z AUTO 35016G23KT 10SM CLR 24/17 A3014 RMK AO1

More Conditions Fewer Conditions

Pressure 30.14 in
Visibility 10.0 miles
Clouds Clear
Dew Point 63 °F
Humidity 65%
Rainfall 0.00 in
Snow Depth Not available.
UV 0 out of 12
Pollen 4.50 out of 12
Air Quality Not available.
Flu Activity Local Activity
METAR KLBL 130815Z AUTO 35016G23KT 10SM CLR 24/17 A3014 RMK AO1

More Conditions Fewer Conditions

10-Day Weather Forecast

Almanac

Astronomy

Jul. 13, 2014 Rise Set
Actual Time 6:37 AM CDT 9:05 PM CDT
Civil Twilight 6:07 AM CDT 9:35 PM CDT
Nautical Twilight 5:30 AM CDT 10:12 PM CDT
Astronomical Twilight 4:49 AM CDT 10:53 PM CDT
Moon 9:59 PM CDT 8:06 AM CDT
Length of Visible Light 15h 27m
Length of Day
14h 27m
Tomorrow will be 1m 7s shorter.
Full, 99% of the Moon is Illuminated
Today
Full
Jul 18
Last Quarter
Jul 26
New
Aug 3
First Quarter
Aug 10
Full

Today's Extremes

State Highs State Lows

Community

WunderPhotos

Upload Photos

1,733,143 photos uploaded!

Nearby

Snow Depth

Station Depth Elevation
No new snow has been reported.

Earthquake Activity

City Distance Mag. Time & Date
No recent earthquake activity has been reported nearby.
Minimum magnitude displayed is 2.5.

Coastal Water Temperatures

Place Temperature
No Stations Reporting

Nearby Weather Stations

Station Location Temp. Heat Index Dew Point Humidity Wind Precip. Elev Updated Type
MesoWest GOODWL , Goodwell, OK 72 °F - - - North  at  - 0.00 in / hr 3228 ft 2:30 AM CDT MADIS
CRN OK PANHANDLE ST (PERM PASTURE)2E OK , Goodwell, OK - - - 58% North  at  9 mph 0.00 in / hr 3282 ft 2:00 AM CDT MADIS
MesoWest TXHOMA , Texhoma, OK 73 °F 71 °F - - North  at  - 0.00 in / hr 3499 ft 1:40 AM CDT MADIS

Show More Stations Show Fewer Stations